Time;durP1;ratioP1;P1;durP2;ratioP2;P2;SDS_P1;SDS_P2;PMS_P1;PMS_P2;Temp;Humidity;BMP_temperature;BMP_pressure;BME280_temperature;BME280_humidity;BME280_pressure;Samples;Min_cycle;Max_cycle;Signal;HPM_P1;HPM_P2
2023/12/10 00:02:18;;;;;;;18.65;2.35;;;;;;;11.98;82.46;100624.16;5049750;28;20108;-74
2023/12/10 00:04:43;;;;;;;20.77;2.00;;;;;;;11.98;82.66;100618.88;5049940;28;20027;-75
2023/12/10 00:07:10;;;;;;;17.80;2.20;;;;;;;11.98;82.85;100624.16;5049710;28;20028;-74
2023/12/10 00:09:35;;;;;;;22.45;2.28;;;;;;;11.97;82.97;100617.13;5050017;28;20044;-76
2023/12/10 00:12:01;;;;;;;18.30;2.60;;;;;;;11.97;83.07;100616.25;5045288;28;20026;-75
2023/12/10 00:14:26;;;;;;;12.37;1.80;;;;;;;11.97;82.86;100616.25;5028659;28;20424;-75
2023/12/10 00:16:55;;;;;;;18.75;2.30;;;;;;;11.97;83.02;100610.97;5029856;28;20056;-75
2023/12/10 00:19:21;;;;;;;17.48;1.60;;;;;;;11.96;83.10;100604.81;5030028;28;20150;-73
2023/12/10 00:21:47;;;;;;;19.67;2.30;;;;;;;11.93;83.14;100599.53;5029867;28;20033;-74
2023/12/10 00:24:12;;;;;;;17.17;1.98;;;;;;;11.93;83.06;100599.53;5035016;28;20075;-74
2023/12/10 00:26:38;;;;;;;22.07;2.17;;;;;;;11.90;83.08;100600.44;5049278;28;20045;-75
2023/12/10 00:29:03;;;;;;;18.57;2.00;;;;;;;11.87;83.12;100592.53;5049607;28;20078;-75
2023/12/10 00:31:29;;;;;;;19.77;2.13;;;;;;;11.84;83.31;100599.56;5049124;28;20103;-74
2023/12/10 00:33:54;;;;;;;17.17;2.00;;;;;;;11.82;83.17;100601.34;5049274;28;20036;-75
2023/12/10 00:36:20;;;;;;;21.10;3.03;;;;;;;11.80;83.46;100605.75;5049637;28;20447;-73
2023/12/10 00:38:45;;;;;;;10.80;1.70;;;;;;;11.75;83.32;100598.75;5049459;28;20024;-74
2023/12/10 00:41:12;;;;;;;16.67;1.97;;;;;;;11.72;83.46;100611.94;5049758;28;20044;-73
2023/12/10 00:43:40;;;;;;;19.13;2.05;;;;;;;11.68;83.54;100620.72;5049218;28;20040;-75
2023/12/10 00:46:07;;;;;;;15.65;2.10;;;;;;;11.63;83.33;100623.41;5049297;28;20029;-75
2023/12/10 00:48:34;;;;;;;13.97;1.93;;;;;;;11.59;83.61;100629.56;5049753;28;20049;-74
2023/12/10 00:51:00;;;;;;;16.15;2.65;;;;;;;11.54;83.59;100630.44;5049255;28;20210;-74
2023/12/10 00:53:25;;;;;;;23.25;2.53;;;;;;;11.48;83.78;100640.13;5048079;28;20417;-75
2023/12/10 00:55:51;;;;;;;19.73;2.10;;;;;;;11.43;83.56;100631.34;5049493;28;20052;-74
2023/12/10 00:58:16;;;;;;;13.13;2.22;;;;;;;11.38;83.84;100638.38;5049344;28;20502;-75
2023/12/10 01:00:42;;;;;;;20.33;2.40;;;;;;;11.32;83.70;100651.56;5049124;28;20389;-77
2023/12/10 01:03:08;;;;;;;14.50;2.13;;;;;;;11.25;84.15;100642.78;5047814;28;20119;-77
2023/12/10 01:05:33;;;;;;;16.23;2.05;;;;;;;11.20;84.31;100644.56;5048981;28;20021;-77
2023/12/10 01:07:59;;;;;;;13.73;1.70;;;;;;;11.14;83.86;100645.44;5049655;28;20036;-77
2023/12/10 01:10:24;;;;;;;15.57;2.03;;;;;;;11.08;84.19;100652.44;5049276;28;20444;-76
2023/12/10 01:12:50;;;;;;;13.20;2.17;;;;;;;11.00;83.84;100648.06;5049350;28;20039;-77
2023/12/10 01:15:16;;;;;;;17.30;2.60;;;;;;;10.95;84.25;100651.56;5049147;28;20058;-77
2023/12/10 01:17:42;;;;;;;16.30;2.22;;;;;;;10.88;84.02;100651.56;5049354;28;20025;-76
2023/12/10 01:20:08;;;;;;;18.23;2.50;;;;;;;10.80;83.85;100641.91;5049162;28;20362;-77
2023/12/10 01:22:33;;;;;;;14.88;2.30;;;;;;;10.75;84.04;100647.19;5049451;28;20207;-77
2023/12/10 01:25:01;;;;;;;16.93;2.10;;;;;;;10.70;84.00;100644.53;5048121;28;20625;-76
2023/12/10 01:27:26;;;;;;;17.15;2.50;;;;;;;10.63;84.38;100651.53;5048873;28;20032;-77
2023/12/10 01:29:52;;;;;;;13.83;2.27;;;;;;;10.57;84.17;100648.00;5049007;28;20047;-77
2023/12/10 01:32:18;;;;;;;18.33;2.35;;;;;;;10.51;84.39;100656.78;5049229;28;20469;-77
2023/12/10 01:34:44;;;;;;;15.75;2.35;;;;;;;10.48;84.76;100647.13;5049033;28;20063;-76
2023/12/10 01:37:10;;;;;;;15.00;2.33;;;;;;;10.43;84.60;100651.50;5049209;28;20104;-76
2023/12/10 01:39:35;;;;;;;13.48;1.88;;;;;;;10.41;84.81;100652.38;5048989;28;20521;-77
2023/12/10 01:42:01;;;;;;;16.20;2.90;;;;;;;10.40;84.32;100666.38;5048796;28;20071;-76
2023/12/10 01:44:27;;;;;;;16.25;1.98;;;;;;;10.37;84.58;100663.72;5051098;28;20554;-77
2023/12/10 01:46:55;;;;;;;14.97;2.00;;;;;;;10.36;84.72;100652.31;5052553;28;20032;-77
2023/12/10 01:49:22;;;;;;;14.20;1.92;;;;;;;10.31;84.49;100654.94;5052668;28;20086;-76
2023/12/10 01:51:49;;;;;;;14.27;1.88;;;;;;;10.28;84.54;100654.94;5052923;28;20129;-77
2023/12/10 01:54:24;;;;;;;14.00;2.03;;;;;;;10.24;84.22;100665.44;5053117;28;20382;-76
2023/12/10 01:56:50;;;;;;;20.60;2.57;;;;;;;10.19;84.39;100657.53;5052774;28;20043;-77
2023/12/10 01:59:20;;;;;;;14.38;2.80;;;;;;;10.14;84.58;100664.53;5052462;28;20397;-76
2023/12/10 02:01:46;;;;;;;20.20;4.18;;;;;;;10.08;84.50;100675.03;5052276;28;20040;-76
2023/12/10 02:04:12;;;;;;;25.15;4.32;;;;;;;10.03;84.61;100668.00;5052233;28;20054;-74
2023/12/10 02:06:38;;;;;;;20.40;4.65;;;;;;;9.99;84.32;100670.59;5052077;28;20037;-76
2023/12/10 02:09:09;;;;;;;23.27;4.80;;;;;;;9.96;84.45;100667.97;5052301;28;20029;-76
2023/12/10 02:11:36;;;;;;;22.85;4.97;;;;;;;9.96;84.53;100663.56;5052316;28;20036;-76
2023/12/10 02:14:03;;;;;;;26.20;5.38;;;;;;;9.96;84.63;100668.81;5052230;28;20478;-76
2023/12/10 02:16:28;;;;;;;28.33;5.70;;;;;;;9.96;84.82;100681.13;5052349;28;20040;-77
2023/12/10 02:18:54;;;;;;;23.90;5.25;;;;;;;9.93;84.85;100671.44;5052675;28;20405;-76
2023/12/10 02:21:19;;;;;;;24.90;5.07;;;;;;;9.93;84.69;100687.22;5052116;28;20491;-76
2023/12/10 02:23:57;;;;;;;23.10;5.10;;;;;;;9.90;83.99;100687.22;5052164;28;20052;-76
2023/12/10 02:26:23;;;;;;;22.20;4.03;;;;;;;9.83;84.79;100686.28;5051517;28;20214;-76
2023/12/10 02:28:49;;;;;;;18.53;5.10;;;;;;;9.78;84.69;100693.28;5051871;28;20175;-76
2023/12/10 02:31:14;;;;;;;14.43;3.05;;;;;;;9.76;84.78;100700.28;5051938;28;20021;-76
2023/12/10 02:33:40;;;;;;;18.70;3.70;;;;;;;9.74;84.59;100699.41;5051948;28;20037;-77
2023/12/10 02:36:05;;;;;;;16.08;3.08;;;;;;;9.70;84.94;100697.63;5051790;28;20032;-77
2023/12/10 02:38:31;;;;;;;14.80;2.67;;;;;;;9.64;84.98;100695.81;5051792;28;20040;-76
2023/12/10 02:40:56;;;;;;;11.63;2.35;;;;;;;9.62;84.95;100693.16;5051651;28;20028;-77
2023/12/10 02:43:22;;;;;;;13.47;2.47;;;;;;;9.61;84.77;100677.41;5051251;28;20032;-75
2023/12/10 02:45:47;;;;;;;14.37;2.77;;;;;;;9.59;84.80;100679.16;5051854;28;20043;-74
2023/12/10 02:48:13;;;;;;;12.87;2.37;;;;;;;9.57;84.55;100676.50;5051491;28;20446;-74
2023/12/10 02:50:38;;;;;;;12.35;2.53;;;;;;;9.57;84.32;100683.50;5051584;28;20020;-73
2023/12/10 02:53:03;;;;;;;11.27;3.10;;;;;;;9.55;84.34;100688.75;5051796;28;20021;-74
2023/12/10 02:55:29;;;;;;;19.27;3.30;;;;;;;9.54;84.26;100689.63;5050747;28;20048;-74
2023/12/10 02:57:54;;;;;;;14.43;3.07;;;;;;;9.52;84.39;100680.84;5051574;28;20032;-76
2023/12/10 03:00:20;;;;;;;13.50;2.77;;;;;;;9.47;84.26;100685.19;5051227;28;20021;-75
2023/12/10 03:02:45;;;;;;;13.60;2.63;;;;;;;9.45;84.33;100679.91;5051184;28;20381;-74
2023/12/10 03:05:10;;;;;;;20.63;3.60;;;;;;;9.39;84.26;100673.72;5051042;28;20495;-76
2023/12/10 03:07:36;;;;;;;13.43;2.80;;;;;;;9.34;84.02;100676.34;5051127;28;20029;-75
2023/12/10 03:10:02;;;;;;;17.50;3.00;;;;;;;9.28;84.29;100665.75;5051345;28;20450;-74
2023/12/10 03:12:27;;;;;;;17.92;2.92;;;;;;;9.29;nan;100668.41;5051357;28;20048;-75
2023/12/10 03:14:52;;;;;;;17.23;3.63;;;;;;;9.30;84.33;100670.16;5051234;28;20029;-75
2023/12/10 03:17:18;;;;;;;21.33;4.20;;;;;;;9.34;84.73;100665.81;5051079;28;20024;-75
2023/12/10 03:19:46;;;;;;;16.63;3.87;;;;;;;9.36;84.54;100663.19;5050952;28;20025;-75
2023/12/10 03:22:12;;;;;;;17.50;3.83;;;;;;;9.36;84.21;100656.19;5050804;28;20029;-75
2023/12/10 03:24:37;;;;;;;18.13;3.85;;;;;;;9.34;84.37;100645.66;5050541;28;20043;-75
2023/12/10 03:27:03;;;;;;;13.10;3.53;;;;;;;9.34;84.29;100660.56;5050556;28;20032;-74
2023/12/10 03:29:28;;;;;;;17.20;3.53;;;;;;;9.32;84.41;100651.81;5050962;28;20067;-76
2023/12/10 03:31:54;;;;;;;16.37;3.40;;;;;;;9.32;84.15;100646.53;5050927;28;20631;-75
2023/12/10 03:34:19;;;;;;;16.00;4.13;;;;;;;9.31;84.31;100645.66;5050725;28;20021;-75
2023/12/10 03:36:44;;;;;;;17.33;3.50;;;;;;;9.29;84.04;100646.53;5051001;28;20024;-76
2023/12/10 03:39:10;;;;;;;14.10;3.50;;;;;;;9.25;84.32;100639.47;5050495;28;20390;-75
2023/12/10 03:41:35;;;;;;;16.83;3.70;;;;;;;9.22;83.99;100640.34;5050493;28;20075;-77
2023/12/10 03:44:00;;;;;;;17.77;4.30;;;;;;;9.18;84.05;100634.16;5050380;28;20267;-77
2023/12/10 03:46:26;;;;;;;26.60;6.83;;;;;;;9.14;84.27;100629.75;5050357;28;20119;-77
2023/12/10 03:48:51;;;;;;;16.73;4.60;;;;;;;9.09;84.18;100626.22;5050470;28;20179;-77
2023/12/10 03:51:17;;;;;;;21.95;5.88;;;;;;;9.06;84.18;100634.09;5050404;28;20052;-76
2023/12/10 03:53:42;;;;;;;15.10;4.90;;;;;;;9.02;84.07;100627.91;5050307;28;20033;-76
2023/12/10 03:56:09;;;;;;;18.70;5.10;;;;;;;9.01;84.44;100630.50;5050249;28;20048;-76
2023/12/10 03:58:35;;;;;;;17.27;3.90;;;;;;;8.98;84.25;100620.00;5050077;28;20025;-76
2023/12/10 04:01:00;;;;;;;14.27;3.87;;;;;;;8.98;84.46;100604.22;5050260;28;20040;-76
2023/12/10 04:03:26;;;;;;;14.55;3.45;;;;;;;8.96;84.11;100605.97;5050017;28;20178;-77
2023/12/10 04:05:51;;;;;;;14.87;3.67;;;;;;;8.96;84.38;100596.34;5049787;28;20029;-77
2023/12/10 04:08:16;;;;;;;13.80;2.73;;;;;;;8.96;84.23;100600.72;5050132;28;20496;-77
2023/12/10 04:10:42;;;;;;;12.37;2.77;;;;;;;8.98;84.10;100599.88;5050534;28;20025;-74
2023/12/10 04:13:07;;;;;;;12.23;2.17;;;;;;;8.98;84.39;100599.88;5050213;28;20601;-77
2023/12/10 04:15:33;;;;;;;10.98;2.05;;;;;;;8.98;84.38;100594.63;5049949;28;20032;-77
2023/12/10 04:17:59;;;;;;;13.90;2.13;;;;;;;8.96;84.11;100588.47;5048618;28;20044;-75
2023/12/10 04:20:25;;;;;;;11.80;2.88;;;;;;;8.97;84.19;100584.09;5049826;28;20035;-74
2023/12/10 04:22:50;;;;;;;12.70;2.13;;;;;;;8.99;84.10;100584.97;5049661;28;20029;-75
2023/12/10 04:25:15;;;;;;;9.83;1.60;;;;;;;8.96;84.20;100575.34;5049376;28;20045;-75
2023/12/10 04:27:41;;;;;;;13.87;2.20;;;;;;;8.94;84.73;100569.19;5049637;28;20029;-75
2023/12/10 04:30:07;;;;;;;11.20;1.70;;;;;;;8.97;84.72;100570.94;5049598;28;20417;-75
2023/12/10 04:32:32;;;;;;;11.85;1.88;;;;;;;8.94;84.79;100566.56;5048361;28;20473;-76
2023/12/10 04:34:57;;;;;;;10.17;1.77;;;;;;;8.94;84.73;100561.31;5049567;28;20059;-76
2023/12/10 04:37:23;;;;;;;9.97;1.80;;;;;;;8.96;85.12;100559.59;5049430;28;20412;-75
2023/12/10 04:39:48;;;;;;;15.45;2.15;;;;;;;8.98;84.81;100554.31;5049581;28;20021;-74
2023/12/10 04:42:13;;;;;;;9.13;1.80;;;;;;;8.96;85.02;100563.94;5048097;28;20032;-75
2023/12/10 04:44:39;;;;;;;9.93;1.23;;;;;;;8.97;84.86;100557.81;5049721;28;20025;-75
2023/12/10 04:47:04;;;;;;;10.20;1.23;;;;;;;8.98;84.79;100556.94;5049360;28;20029;-75
2023/12/10 04:49:29;;;;;;;12.53;1.60;;;;;;;9.01;84.75;100562.22;5048132;28;20028;-74
2023/12/10 04:51:55;;;;;;;8.80;1.60;;;;;;;9.00;84.96;100561.34;5049763;28;20020;-75
2023/12/10 04:54:20;;;;;;;12.57;1.60;;;;;;;9.01;84.67;100572.72;5049559;28;20260;-75
2023/12/10 04:56:46;;;;;;;8.57;1.37;;;;;;;8.99;84.87;100561.34;5049870;28;20511;-75
2023/12/10 04:59:11;;;;;;;10.33;1.40;;;;;;;8.95;84.85;100568.34;5049521;28;20042;-75
2023/12/10 05:01:36;;;;;;;6.53;1.57;;;;;;;8.93;84.97;100563.91;5049349;28;20037;-75
2023/12/10 05:04:02;;;;;;;5.88;1.20;;;;;;;8.87;84.93;100564.75;5049205;28;20052;-75
2023/12/10 05:06:28;;;;;;;7.27;1.30;;;;;;;8.85;84.88;100562.13;5049152;28;20398;-75
2023/12/10 05:08:53;;;;;;;6.55;1.55;;;;;;;8.81;84.87;100560.34;5049588;28;20481;-76
2023/12/10 05:11:19;;;;;;;8.60;1.40;;;;;;;8.77;84.84;100555.91;5049291;28;20040;-74
2023/12/10 05:13:44;;;;;;;7.23;1.23;;;;;;;8.74;84.72;100555.88;5049252;28;20184;-75
2023/12/10 05:16:09;;;;;;;5.47;1.03;;;;;;;8.69;84.70;100549.72;5049884;28;20037;-75
2023/12/10 05:18:35;;;;;;;12.20;1.87;;;;;;;8.63;84.60;100553.19;5050201;28;20112;-76
2023/12/10 05:21:01;;;;;;;6.70;1.02;;;;;;;8.61;84.74;100544.41;5053171;28;20111;-75
2023/12/10 05:23:26;;;;;;;5.70;1.53;;;;;;;8.54;84.33;100539.97;5053105;28;20029;-75
2023/12/10 05:25:51;;;;;;;6.80;1.33;;;;;;;8.45;84.66;100541.63;5052407;28;20129;-75
2023/12/10 05:28:17;;;;;;;6.55;1.40;;;;;;;8.39;84.62;100541.56;5051726;28;20108;-76
2023/12/10 05:30:42;;;;;;;7.27;1.60;;;;;;;8.35;84.28;100545.03;5053108;28;20025;-73
2023/12/10 05:33:08;;;;;;;6.43;1.53;;;;;;;8.30;84.59;100541.47;5053284;28;20082;-74
2023/12/10 05:35:34;;;;;;;7.50;1.30;;;;;;;8.26;84.60;100539.69;5052800;28;20032;-76
2023/12/10 05:37:59;;;;;;;8.05;1.40;;;;;;;8.23;84.47;100545.78;5052916;28;20374;-77
2023/12/10 05:40:25;;;;;;;6.97;1.47;;;;;;;8.19;84.80;100544.00;5053043;28;20029;-77
2023/12/10 05:42:52;;;;;;;8.05;1.67;;;;;;;8.15;84.55;100547.47;5052688;28;20059;-75
2023/12/10 05:45:18;;;;;;;4.93;1.38;;;;;;;8.10;84.38;100539.53;5052502;28;20036;-76
2023/12/10 05:47:43;;;;;;;6.27;1.67;;;;;;;8.07;84.56;100549.09;5052688;28;20481;-76
2023/12/10 05:50:09;;;;;;;5.07;1.40;;;;;;;8.04;84.39;100542.97;5052761;28;20025;-77
2023/12/10 05:52:34;;;;;;;7.18;1.48;;;;;;;8.02;84.50;100542.06;5052771;28;20036;-76
2023/12/10 05:55:00;;;;;;;4.93;1.20;;;;;;;8.00;84.21;100538.56;5053005;28;20029;-76
2023/12/10 05:57:25;;;;;;;8.07;1.47;;;;;;;8.01;84.18;100544.69;5052608;28;20032;-77
2023/12/10 05:59:50;;;;;;;10.13;1.70;;;;;;;8.00;84.28;100548.19;5052572;28;20056;-76
2023/12/10 06:02:16;;;;;;;7.80;2.23;;;;;;;8.00;84.16;100556.91;5051199;28;20025;-77
2023/12/10 06:04:41;;;;;;;9.07;2.23;;;;;;;8.02;84.14;100557.81;5052437;28;20032;-76
2023/12/10 06:07:07;;;;;;;6.87;2.70;;;;;;;8.04;84.06;100560.44;5052238;28;20100;-77
2023/12/10 06:09:32;;;;;;;8.13;2.70;;;;;;;8.05;84.16;100563.06;5052450;28;20043;-76
2023/12/10 06:11:58;;;;;;;9.33;3.33;;;;;;;8.09;84.03;100557.91;5052536;28;20028;-76
2023/12/10 06:14:23;;;;;;;12.53;4.23;;;;;;;8.11;84.04;100548.28;5052784;28;20464;-76
2023/12/10 06:16:48;;;;;;;12.50;4.23;;;;;;;8.14;84.03;100543.06;5052275;28;20025;-77
2023/12/10 06:19:14;;;;;;;12.30;4.40;;;;;;;8.13;83.82;100534.31;5052317;28;20485;-76
2023/12/10 06:21:40;;;;;;;11.88;3.72;;;;;;;8.14;83.94;100529.97;5051997;28;20020;-76
2023/12/10 06:24:06;;;;;;;20.33;4.60;;;;;;;8.15;83.79;100531.72;5051717;28;20021;-77
2023/12/10 06:26:31;;;;;;;14.60;3.88;;;;;;;8.14;83.75;100529.97;5051588;28;20421;-77
2023/12/10 06:28:57;;;;;;;16.83;4.77;;;;;;;8.14;83.93;100530.81;5050170;28;20040;-76
2023/12/10 06:31:22;;;;;;;15.55;4.03;;;;;;;8.16;83.77;100533.47;5050686;28;20139;-76
2023/12/10 06:33:48;;;;;;;15.60;4.93;;;;;;;8.18;83.86;100516.00;5052479;28;20460;-76
2023/12/10 06:36:13;;;;;;;12.00;4.03;;;;;;;8.19;83.87;100523.00;5052003;28;20083;-75
2023/12/10 06:38:39;;;;;;;16.83;4.38;;;;;;;8.18;83.82;100522.13;5051787;28;20032;-76
2023/12/10 06:41:05;;;;;;;17.80;4.50;;;;;;;8.13;83.52;100526.44;5051782;28;20035;-77
2023/12/10 06:43:31;;;;;;;13.63;4.40;;;;;;;8.11;83.68;100520.31;5051687;28;20421;-77
2023/12/10 06:45:58;;;;;;;15.33;3.87;;;;;;;8.09;83.71;100515.94;5049995;28;20025;-76
2023/12/10 06:48:24;;;;;;;16.95;5.60;;;;;;;8.04;84.05;100514.09;5051885;28;20453;-77
2023/12/10 06:50:49;;;;;;;15.40;5.30;;;;;;;8.02;84.05;100515.84;5051950;28;20110;-76
2023/12/10 06:53:14;;;;;;;21.83;5.70;;;;;;;8.01;83.98;100518.47;5051567;28;20390;-76
2023/12/10 06:55:40;;;;;;;19.45;5.72;;;;;;;7.96;83.71;100510.53;5051421;28;20025;-76
2023/12/10 06:58:05;;;;;;;21.70;6.40;;;;;;;7.94;83.70;100512.28;5051710;28;20408;-76
2023/12/10 07:00:31;;;;;;;23.10;6.43;;;;;;;7.91;83.91;100517.47;5051217;28;20040;-76
2023/12/10 07:02:56;;;;;;;23.93;5.80;;;;;;;7.87;83.71;100520.94;5051240;28;20025;-77
2023/12/10 07:05:22;;;;;;;18.27;5.73;;;;;;;7.84;83.62;100518.28;5051077;28;20271;-78
2023/12/10 07:07:47;;;;;;;18.50;6.63;;;;;;;7.80;83.65;100513.84;5051374;28;20477;-76
2023/12/10 07:10:12;;;;;;;21.80;6.43;;;;;;;7.75;83.78;100517.31;5051104;28;20029;-76
2023/12/10 07:12:38;;;;;;;18.75;5.78;;;;;;;7.71;83.83;100514.63;5051194;28;20029;-76
2023/12/10 07:15:04;;;;;;;21.23;5.90;;;;;;;7.67;83.81;100526.81;5051087;28;20056;-76
2023/12/10 07:17:29;;;;;;;21.13;6.53;;;;;;;7.64;83.58;100531.13;5051302;28;20025;-77
2023/12/10 07:19:55;;;;;;;33.22;7.78;;;;;;;7.63;83.36;100538.13;5050945;28;20028;-76
2023/12/10 07:22:21;;;;;;;31.47;6.70;;;;;;;7.56;83.42;100533.66;5051085;28;20025;-76
2023/12/10 07:24:46;;;;;;;27.58;6.88;;;;;;;7.46;83.64;100522.16;5049996;28;20045;-76
2023/12/10 07:27:12;;;;;;;22.13;6.47;;;;;;;7.41;83.40;100527.38;5050374;28;20033;-77
2023/12/10 07:29:37;;;;;;;23.40;6.53;;;;;;;7.38;83.65;100518.59;5049151;28;20044;-76
2023/12/10 07:32:02;;;;;;;21.90;6.30;;;;;;;7.37;84.16;100525.59;5050874;28;20053;-76
2023/12/10 07:34:28;;;;;;;33.72;7.70;;;;;;;7.40;83.60;100528.25;5050617;28;20095;-76
2023/12/10 07:36:53;;;;;;;41.83;10.23;;;;;;;7.40;83.81;100520.38;5050842;28;20052;-76
2023/12/10 07:39:19;;;;;;;53.13;17.17;;;;;;;7.36;83.70;100528.16;5050580;28;20017;-76
2023/12/10 07:41:44;;;;;;;44.73;13.93;;;;;;;7.32;83.28;100542.94;5049790;28;20056;-75
2023/12/10 07:44:09;;;;;;;40.08;12.55;;;;;;;7.33;84.08;100539.47;5050326;28;20032;-76
2023/12/10 07:46:35;;;;;;;38.90;10.07;;;;;;;7.36;83.70;100534.31;5050604;28;20040;-76
2023/12/10 07:49:00;;;;;;;43.10;9.37;;;;;;;7.41;84.14;100535.25;5050391;28;20048;-77
2023/12/10 07:51:26;;;;;;;28.93;8.23;;;;;;;7.49;83.99;100534.44;5049327;28;20493;-77
2023/12/10 07:53:51;;;;;;;29.67;7.90;;;;;;;7.57;83.48;100535.41;5049291;28;20036;-76
2023/12/10 07:56:16;;;;;;;23.70;7.85;;;;;;;7.65;83.66;100539.03;5050572;28;20029;-77
2023/12/10 07:58:42;;;;;;;25.23;7.60;;;;;;;7.72;83.45;100540.00;5049050;28;20546;-77
2023/12/10 08:01:10;;;;;;;26.87;8.00;;;;;;;7.76;83.04;100540.03;5050241;28;20056;-76
2023/12/10 08:03:36;;;;;;;22.13;8.10;;;;;;;7.82;83.29;100546.19;5049621;28;20072;-77
2023/12/10 08:06:02;;;;;;;21.33;7.40;;;;;;;7.86;82.93;100550.66;5049933;28;20029;-78
2023/12/10 08:08:27;;;;;;;18.27;6.70;;;;;;;7.87;83.04;100547.16;5050183;28;20033;-77
2023/12/10 08:10:53;;;;;;;19.80;6.80;;;;;;;7.88;83.19;100548.91;5049820;28;20025;-74
2023/12/10 08:13:18;;;;;;;15.70;6.97;;;;;;;7.91;82.79;100543.69;5050063;28;20055;-76
2023/12/10 08:15:43;;;;;;;19.33;7.32;;;;;;;7.92;83.05;100550.72;5050204;28;20025;-75
2023/12/10 08:18:09;;;;;;;17.27;6.53;;;;;;;7.96;83.00;100544.63;5049947;28;20028;-76
2023/12/10 08:20:34;;;;;;;16.53;5.40;;;;;;;8.00;83.17;100562.16;5049122;28;20033;-77
2023/12/10 08:23:00;;;;;;;10.73;4.53;;;;;;;8.05;83.26;100563.06;5049677;28;20071;-76
2023/12/10 08:25:25;;;;;;;12.95;4.80;;;;;;;8.16;83.19;100551.84;5048267;28;20041;-77
2023/12/10 08:27:51;;;;;;;14.37;6.27;;;;;;;8.19;83.66;100544.84;5049543;28;20033;-76
2023/12/10 08:30:16;;;;;;;11.23;5.27;;;;;;;8.24;83.62;100537.03;5048833;28;20025;-77
2023/12/10 08:32:42;;;;;;;11.77;4.50;;;;;;;8.27;84.38;100538.84;5048809;28;20029;-78
2023/12/10 08:35:07;;;;;;;8.13;3.50;;;;;;;8.28;84.68;100536.19;5048944;28;20421;-76
2023/12/10 08:37:33;;;;;;;9.13;3.30;;;;;;;8.30;84.96;100542.34;5048568;28;20025;-77
2023/12/10 08:39:58;;;;;;;8.80;2.97;;;;;;;8.33;84.82;100533.63;5048576;28;20585;-77
2023/12/10 08:42:25;;;;;;;6.70;2.45;;;;;;;8.38;84.54;100538.94;5040448;28;20090;-77
2023/12/10 08:44:51;;;;;;;6.53;2.47;;;;;;;8.44;84.41;100546.84;5047304;28;20112;-77
2023/12/10 08:47:16;;;;;;;8.43;3.07;;;;;;;8.53;84.28;100541.72;5048485;28;20128;-76
2023/12/10 08:49:41;;;;;;;14.60;3.67;;;;;;;8.67;84.79;100535.72;5047912;28;20086;-77
2023/12/10 08:52:07;;;;;;;9.60;3.47;;;;;;;8.71;84.86;100527.00;5048786;28;20029;-76
2023/12/10 08:54:32;;;;;;;8.73;3.20;;;;;;;8.80;85.06;100532.34;5047393;28;20029;-76
2023/12/10 08:56:58;;;;;;;11.47;3.50;;;;;;;8.93;85.15;100541.19;5047645;28;20075;-76
2023/12/10 08:59:23;;;;;;;13.33;3.33;;;;;;;9.09;84.51;100541.25;5048172;28;20116;-77
2023/12/10 09:01:48;;;;;;;11.20;3.10;;;;;;;9.26;84.26;100543.97;5048391;28;20025;-76
2023/12/10 09:04:14;;;;;;;14.07;3.93;;;;;;;9.47;85.14;100541.47;5043811;28;20125;-76
2023/12/10 09:06:39;;;;;;;9.60;2.90;;;;;;;9.66;84.59;100538.94;5048352;28;20487;-78
2023/12/10 09:09:04;;;;;;;14.67;3.17;;;;;;;9.82;84.31;100534.59;5049074;28;20275;-76
2023/12/10 09:11:30;;;;;;;14.93;2.90;;;;;;;9.97;84.14;100525.88;5049478;28;20527;-75
2023/12/10 09:13:56;;;;;;;12.70;3.00;;;;;;;10.17;84.17;100530.31;5047183;28;20036;-76
2023/12/10 09:16:22;;;;;;;10.17;2.50;;;;;;;10.30;83.52;100523.31;5046099;28;20079;-77
2023/12/10 09:18:48;;;;;;;12.70;3.13;;;;;;;10.48;83.71;100527.75;5048197;28;20033;-78
2023/12/10 09:21:13;;;;;;;15.07;3.27;;;;;;;10.60;83.38;100530.41;5049228;28;20056;-77
2023/12/10 09:23:39;;;;;;;14.40;2.97;;;;;;;10.74;83.12;100530.38;5047351;28;20029;-77
2023/12/10 09:26:04;;;;;;;13.37;2.93;;;;;;;10.87;82.73;100539.16;5048917;28;20664;-79
2023/12/10 09:28:30;;;;;;;11.10;3.00;;;;;;;11.00;82.43;100531.25;5048973;28;20029;-80
2023/12/10 09:30:56;;;;;;;12.97;3.13;;;;;;;11.09;82.56;100525.97;5048517;28;20029;-76
2023/12/10 09:33:21;;;;;;;12.00;3.15;;;;;;;11.20;82.50;100539.13;5049131;28;20672;-77
2023/12/10 09:35:47;;;;;;;14.30;2.90;;;;;;;11.28;82.21;100547.00;5048002;28;20119;-77
2023/12/10 09:38:12;;;;;;;11.40;3.43;;;;;;;11.43;81.81;100540.81;5048132;28;20025;-77
2023/12/10 09:40:38;;;;;;;18.87;3.70;;;;;;;11.58;81.87;100537.25;5048387;28;20351;-78
2023/12/10 09:43:03;;;;;;;13.23;2.90;;;;;;;11.65;81.84;100536.31;5047981;28;20082;-77
2023/12/10 09:45:29;;;;;;;14.40;3.22;;;;;;;11.73;81.79;100537.19;5046893;28;20025;-77
2023/12/10 09:47:55;;;;;;;13.90;2.93;;;;;;;11.87;81.81;100528.31;5048273;28;20037;-77
2023/12/10 09:50:22;;;;;;;18.15;2.95;;;;;;;11.95;81.75;100523.00;5048180;28;20036;-78
2023/12/10 09:52:48;;;;;;;16.47;2.77;;;;;;;12.13;81.13;100511.47;5047798;28;20040;-78
2023/12/10 09:55:13;;;;;;;15.50;3.45;;;;;;;12.23;80.98;100512.28;5048084;28;20033;-77
2023/12/10 09:57:39;;;;;;;15.60;3.30;;;;;;;12.30;80.27;100504.31;5047570;28;20495;-79
2023/12/10 10:00:06;;;;;;;15.37;3.07;;;;;;;12.37;80.39;100504.28;5048248;28;20033;-79
2023/12/10 10:02:35;;;;;;;18.88;3.17;;;;;;;12.37;80.58;100505.16;5048571;28;20032;-78
2023/12/10 10:05:02;;;;;;;16.08;2.85;;;;;;;12.40;80.90;100499.84;5049438;28;20421;-75
2023/12/10 10:07:30;;;;;;;19.92;2.70;;;;;;;12.51;80.75;100490.94;5051443;28;20085;-75
2023/12/10 10:09:55;;;;;;;19.42;2.63;;;;;;;12.67;80.31;100507.56;5051307;28;20040;-78
2023/12/10 10:12:21;;;;;;;22.43;3.67;;;;;;;12.75;78.83;100503.94;5051604;28;20025;-76
2023/12/10 10:14:57;;;;;;;17.80;2.83;;;;;;;12.94;79.54;100494.97;5051073;28;20174;-75
2023/12/10 10:17:27;;;;;;;23.77;3.22;;;;;;;13.10;78.63;100482.47;5051359;28;20064;-78
2023/12/10 10:19:53;;;;;;;19.42;2.97;;;;;;;13.21;79.40;100485.84;5051573;28;20024;-76
2023/12/10 10:22:19;;;;;;;16.90;3.37;;;;;;;13.32;79.46;100476.03;5052155;28;20633;-76
2023/12/10 10:24:44;;;;;;;18.73;2.60;;;;;;;13.49;79.12;100467.94;5057148;28;20044;-77
2023/12/10 10:27:09;;;;;;;20.03;2.10;;;;;;;13.60;78.99;100466.91;5050489;28;20040;-77
2023/12/10 10:29:35;;;;;;;16.80;2.70;;;;;;;13.63;78.92;100470.38;5049419;28;20032;-77
2023/12/10 10:32:01;;;;;;;20.23;2.70;;;;;;;13.67;79.10;100465.94;5051014;28;20029;-77
2023/12/10 10:34:27;;;;;;;18.30;2.60;;;;;;;13.75;79.19;100457.91;5051248;28;20477;-76
2023/12/10 10:36:52;;;;;;;16.63;2.17;;;;;;;13.88;78.89;100448.88;5051689;28;20029;-77
2023/12/10 10:39:18;;;;;;;20.67;2.63;;;;;;;13.97;78.28;100461.09;5051527;28;20017;-75
2023/12/10 10:41:43;;;;;;;22.73;2.47;;;;;;;14.18;77.62;100456.38;5051527;28;20456;-76
2023/12/10 10:44:09;;;;;;;18.97;3.37;;;;;;;14.31;77.47;100454.41;5051721;28;20039;-77
2023/12/10 10:46:36;;;;;;;17.83;2.43;;;;;;;14.49;76.23;100450.56;5051673;28;20825;-74
2023/12/10 10:49:01;;;;;;;16.95;1.90;;;;;;;14.58;76.10;100447.72;5051951;28;20064;-74
2023/12/10 10:51:29;;;;;;;17.50;2.33;;;;;;;14.57;76.51;100432.72;5051637;28;20053;-77
2023/12/10 10:53:56;;;;;;;16.33;2.20;;;;;;;14.63;75.91;100423.81;5051835;28;20417;-77
2023/12/10 10:56:22;;;;;;;22.00;2.43;;;;;;;14.76;75.71;100428.03;5051333;28;20033;-77
2023/12/10 10:58:48;;;;;;;18.52;2.40;;;;;;;14.87;75.88;100414.56;5051381;28;20037;-74
2023/12/10 11:01:36;;;;;;;14.03;2.10;;;;;;;14.86;75.26;100410.16;5051451;28;20033;-77
2023/12/10 11:04:02;;;;;;;25.88;2.50;;;;;;;14.88;75.06;100411.00;5051594;28;20108;-78
2023/12/10 11:06:28;;;;;;;14.98;2.33;;;;;;;14.91;75.22;100410.94;5051167;28;20120;-76
2023/12/10 11:08:59;;;;;;;19.87;2.27;;;;;;;14.97;75.06;100398.47;5051152;28;20037;-77
2023/12/10 11:11:26;;;;;;;14.95;1.90;;;;;;;15.06;74.65;100382.34;5050997;28;20029;-78
2023/12/10 11:13:53;;;;;;;19.90;2.20;;;;;;;15.09;74.06;100371.69;5050867;28;20560;-76
2023/12/10 11:16:18;;;;;;;13.85;1.70;;;;;;;15.20;73.45;100367.03;5050343;28;20056;-77
2023/12/10 11:18:55;;;;;;;20.33;2.30;;;;;;;15.18;73.39;100355.56;5051090;28;20498;-77